Hovedside
METAR-TAF:

METAR-TAF

Lufthavner :

Honningsvåg lufthavn. Valan

Honningsvåg, Norge

breddegrad: 71-01N, lengdegrad: 025-59E, høyde over havet: 1 m

Gjeldene værobservasjon

Denne rapporten ble laget for 1 time og 49 minutter siden, klokken 03:50 UTC
Vind 12 kt fra Nord-nordvest
Temperatur 1°C
Luftfuktighet 69%
Trykk 1008 hPa
Sikt 10 km eller mer
Brutte skyer i en høyde av 3300 ft
lette snøbyger

METAR: ENHV 240350Z 33012KT 9999 -SHSN BKN033 01/M04 Q1008

Tid: 07:39 (05:39 UTC)


TAF: fraværende

Værobservasjoner og værvarsel for over 4000 flyplasser (METAR- og TAF-rapporter).

Tilgjengelige stasjoner er representert av de røde og gule prikkene på kartet.

Hold musepekeren over prikken for å se navnet på stasjonen.

Klikk så for å se værobservasjoner og -varsler.

For å forandre kartet kan du klikke på den grønne knappen med svart kryss for å zoome inn, på den grønne knappen med strek for å zoome ut, eller på de grønne pilene for å se tilstøtende kart.


METAR-TAF: